Baldwin, ND (58521)

6:09 AM CDT on August 29, 2015 (GMT -0500)
Rural North Bismarck, Harvest Grove Subdivsion | | Change Station
CLOSE
Current Station
Personal Weather Station
Location: Bismarck, ND
Elevation: 1900 ft
Nearby Weather Stations

Elev 1900 ft 46.90 °N, 100.78 °W | Updated 11 seconds ago

Mostly Cloudy
Mostly Cloudy
61.1 °F
Feels Like 61.1 °F
N
2.0
Wind Variable Wind from ENE
Gusts 2.0 mph

Today
High -- | Low -- °F
--% Chance of Precip.
Yesterday
High -- | Low -- °F
Precip. -- in
6:58 AM 8:28 PM
Full, 100% visible
Pressure 29.91 in
Visibility 8.0 miles
Clouds Overcast 4400 ft
Dew Point 60 °F
Humidity 96%
Rainfall 0.00 in
Snow Depth Not available.
UV 0.0 out of 12
Pollen 10.10 out of 12
Air Quality Not available.
Flu Activity Not available.
METAR KBIS 291052Z AUTO 00000KT 8SM OVC044 16/15 A2993 RMK AO2 SLP126 T01560150
Pressure 29.91 in
Visibility 8.0 miles
Clouds Overcast 4400 ft
Dew Point 60 °F
Humidity 96%
Rainfall 0.00 in
Snow Depth Not available.
UV 0.0 out of 12
Pollen 10.10 out of 12
Air Quality Not available.
Flu Activity Not available.
METAR KBIS 291052Z AUTO 00000KT 8SM OVC044 16/15 A2993 RMK AO2 SLP126 T01560150

10-Day Weather Forecast

×

Almanac

Astronomy

Aug. 29, 2015 Rise Set
Actual Time
Civil Twilight
Nautical Twilight
Astronomical Twilight
Moon
Length of Visible Light
Length of Day
Tomorrow will be .
, % of the Moon is Illuminated

Today's Extremes

State Highs State Lows

Community

WunderPhotos

Upload Photos

1,850,651 photos uploaded!

WunderBlogs® & News

Nearby

Air Quality

  Air Quality AQ Index Pollutant
Not available.

Snow Depth

Station Depth Elevation

Earthquake Activity

City Distance Mag. Time & Date
Minimum magnitude displayed is 2.5.

Coastal Water Temperatures

Place Temperature

Stations

Nearby Weather Stations

Station Location Temp. Windchill Dew Point Humidity Wind Precip. Elev Updated Type